Time;durP1;ratioP1;P1;durP2;ratioP2;P2;SDS_P1;SDS_P2;PMS_P1;PMS_P2;Temp;Humidity;BMP_temperature;BMP_pressure;BME280_temperature;BME280_humidity;BME280_pressure;Samples;Min_cycle;Max_cycle;Signal;HPM_P1;HPM_P2
2021/04/09 00:01:38;;;;;;;;;;;;;;;-0.55;90.48;94036.75;5096658;28;19924;-75
2021/04/09 00:04:04;;;;;;;;;;;;;;;-0.60;92.45;94034.56;5095612;28;19998;-77
2021/04/09 00:06:30;;;;;;;;;;;;;;;-0.91;95.42;94036.25;5095695;28;20053;-76
2021/04/09 00:08:55;;;;;;;;;;;;;;;-0.77;91.66;94032.56;5096669;28;19920;-75
2021/04/09 00:11:21;;;;;;;;;;;;;;;-0.67;91.86;94024.94;5096495;28;19985;-77
2021/04/09 00:13:47;;;;;;;;;;;;;;;-0.68;91.01;94020.75;5096524;28;19927;-76
2021/04/09 00:16:14;;;;;;;;;;;;;;;-0.79;91.66;94022.44;5095082;28;19920;-76
2021/04/09 00:18:40;;;;;;;;;;;;;;;-0.54;88.47;94015.31;5094551;28;19920;-77
2021/04/09 00:21:06;;;;;;;;;;;;;;;-0.46;89.90;94015.47;5094398;28;19934;-76
2021/04/09 00:23:32;;;;;;;;;;;;;;;-0.38;88.54;94007.16;5095975;28;19928;-77
2021/04/09 00:25:57;;;;;;;;;;;;;;;-0.43;88.95;94010.09;5094539;28;19920;-76
2021/04/09 00:28:23;;;;;;;;;;;;;;;-0.63;89.75;94006.63;5094922;28;19974;-77
2021/04/09 00:30:49;;;;;;;;;;;;;;;-0.45;88.39;94003.47;5095147;28;19923;-76
2021/04/09 00:33:16;;;;;;;;;;;;;;;-0.39;90.08;94001.19;5094117;28;20519;-76
2021/04/09 00:35:43;;;;;;;;;;;;;;;-0.75;92.26;94005.88;5095938;28;19920;-77
2021/04/09 00:38:09;;;;;;;;;;;;;;;-0.71;90.32;94006.44;5096004;28;19920;-77
2021/04/09 00:40:35;;;;;;;;;;;;;;;-0.48;91.76;93999.41;5095598;28;20022;-76
2021/04/09 00:43:01;;;;;;;;;;;;;;;-0.32;86.98;94000.69;5095490;28;19920;-76
2021/04/09 00:45:26;;;;;;;;;;;;;;;-0.24;87.19;94006.00;5095824;28;19969;-77
2021/04/09 00:47:52;;;;;;;;;;;;;;;-0.33;86.98;93997.31;5095579;28;19920;-77
2021/04/09 00:50:19;;;;;;;;;;;;;;;-0.40;88.51;93996.19;5093562;28;19926;-76
2021/04/09 00:52:45;;;;;;;;;;;;;;;-0.11;83.64;93993.75;5094228;28;19965;-76
2021/04/09 00:55:12;;;;;;;;;;;;;;;0.15;83.85;93993.28;5095792;28;19920;-76
2021/04/09 00:57:38;;;;;;;;;;;;;;;0.16;84.11;93984.63;5095422;28;19920;-74
2021/04/09 01:00:04;;;;;;;;;;;;;;;-0.15;85.68;93997.53;5095563;28;19927;-78
2021/04/09 01:02:30;;;;;;;;;;;;;;;-0.46;87.75;93992.41;5095586;28;19926;-76
2021/04/09 01:04:56;;;;;;;;;;;;;;;-0.71;91.94;93990.25;5095360;28;19928;-75
2021/04/09 01:07:24;;;;;;;;;;;;;;;-0.04;82.41;93988.91;5094941;28;19927;-74
2021/04/09 01:09:50;;;;;;;;;;;;;;;0.54;79.24;93988.22;5094460;28;20359;-75
2021/04/09 01:12:15;;;;;;;;;;;;;;;0.52;82.16;93985.78;5094174;28;19927;-75
2021/04/09 01:14:42;;;;;;;;;;;;;;;0.13;81.65;93993.44;5094782;28;19949;-76
2021/04/09 01:17:09;;;;;;;;;;;;;;;-0.14;84.41;93990.63;5094585;28;19920;-76
2021/04/09 01:20:06;;;;;;;;;;;;;;;-0.11;85.21;93987.81;5094971;28;19920;-76
2021/04/09 01:22:41;;;;;;;;;;;;;;;-0.43;92.66;93989.59;5094842;28;19919;-76
2021/04/09 01:25:20;;;;;;;;;;;;;;;-0.43;88.41;93981.88;5094466;28;19923;-76
2021/04/09 01:28:01;;;;;;;;;;;;;;;-0.78;90.21;93990.75;5094819;28;20405;-75
2021/04/09 01:30:54;;;;;;;;;;;;;;;-0.77;89.57;93986.44;5094477;28;19931;-75
2021/04/09 01:33:23;;;;;;;;;;;;;;;-0.81;89.92;93985.88;5093688;28;19966;-77
2021/04/09 01:35:50;;;;;;;;;;;;;;;-0.85;93.79;93987.09;5094654;28;19920;-75
2021/04/09 01:38:17;;;;;;;;;;;;;;;-1.15;94.47;93983.53;5095100;28;19964;-75
2021/04/09 01:40:45;;;;;;;;;;;;;;;-1.18;92.62;93982.97;5094859;28;19920;-77
2021/04/09 01:43:13;;;;;;;;;;;;;;;-0.85;89.61;93983.69;5094647;28;19920;-77
2021/04/09 01:45:39;;;;;;;;;;;;;;;-0.54;89.82;93992.22;5094431;28;20409;-77
2021/04/09 01:48:08;;;;;;;;;;;;;;;-0.76;90.01;93988.88;5094422;28;20006;-76
2021/04/09 01:50:35;;;;;;;;;;;;;;;-0.66;87.82;93990.69;5094362;28;19920;-76
2021/04/09 01:53:02;;;;;;;;;;;;;;;-0.35;89.62;93983.00;5094563;28;19927;-75
2021/04/09 01:55:30;;;;;;;;;;;;;;;-0.60;91.98;93978.19;5093957;28;19973;-76
2021/04/09 01:57:57;;;;;;;;;;;;;;;-0.56;88.87;93982.09;5094378;28;19920;-76
2021/04/09 02:00:24;;;;;;;;;;;;;;;-0.09;84.35;93966.19;5094515;28;19920;-75
2021/04/09 02:02:50;;;;;;;;;;;;;;;-0.14;90.83;93983.75;5094198;28;20367;-77
2021/04/09 02:05:17;;;;;;;;;;;;;;;-0.17;88.06;93971.16;5094159;28;19920;-77
2021/04/09 02:07:45;;;;;;;;;;;;;;;0.19;80.11;93956.13;5094513;28;19920;-74
2021/04/09 02:10:12;;;;;;;;;;;;;;;0.46;82.16;93947.78;5094059;28;19958;-75
2021/04/09 02:12:39;;;;;;;;;;;;;;;0.70;78.58;93952.53;5094061;28;19927;-76
2021/04/09 02:15:06;;;;;;;;;;;;;;;0.64;78.72;93945.34;5094126;28;19926;-77
2021/04/09 02:17:32;;;;;;;;;;;;;;;0.48;81.94;93942.50;5093837;28;20268;-77
2021/04/09 02:19:58;;;;;;;;;;;;;;;0.35;79.74;93942.75;5093901;28;20016;-78
2021/04/09 02:22:24;;;;;;;;;;;;;;;0.63;76.78;93941.16;5093989;28;20345;-76
2021/04/09 02:24:51;;;;;;;;;;;;;;;0.91;76.70;93934.34;5093982;28;19950;-77
2021/04/09 02:27:16;;;;;;;;;;;;;;;0.83;76.39;93936.00;5094044;28;19981;-77
2021/04/09 02:29:43;;;;;;;;;;;;;;;0.54;81.92;93932.50;5092312;28;19920;-77
2021/04/09 02:32:09;;;;;;;;;;;;;;;0.56;81.63;93934.94;5093314;28;19966;-77
2021/04/09 02:34:35;;;;;;;;;;;;;;;0.29;83.17;93936.41;5093821;28;19920;-77
2021/04/09 02:37:01;;;;;;;;;;;;;;;0.07;84.73;93936.69;5093762;28;19920;-77
2021/04/09 02:39:28;;;;;;;;;;;;;;;-0.10;85.49;93928.69;5093844;28;19924;-77
2021/04/09 02:41:57;;;;;;;;;;;;;;;-0.09;85.74;93930.28;5092287;28;19920;-76
2021/04/09 02:44:23;;;;;;;;;;;;;;;0.05;88.63;93926.53;5092358;28;19920;-77
2021/04/09 02:46:50;;;;;;;;;;;;;;;-0.08;88.42;93918.28;5093386;28;19927;-76
2021/04/09 02:49:20;;;;;;;;;;;;;;;-0.12;88.72;93915.16;5093762;28;19920;-77
2021/04/09 02:51:48;;;;;;;;;;;;;;;-0.12;86.07;93922.84;5093140;28;20283;-77
2021/04/09 02:54:15;;;;;;;;;;;;;;;-0.15;86.20;93920.56;5093234;28;19927;-77
2021/04/09 02:56:41;;;;;;;;;;;;;;;-0.32;88.13;93921.97;5091649;28;20378;-75
2021/04/09 02:59:10;;;;;;;;;;;;;;;-0.41;88.40;93915.88;5092176;28;19924;-75
2021/04/09 03:01:37;;;;;;;;;;;;;;;-0.35;87.93;93916.31;5092685;28;20091;-77
2021/04/09 03:04:04;;;;;;;;;;;;;;;-0.09;88.25;93922.59;5093563;28;19920;-77
2021/04/09 03:06:30;;;;;;;;;;;;;;;-0.14;86.03;93917.03;5092936;28;19920;-77
2021/04/09 03:08:56;;;;;;;;;;;;;;;-0.23;85.69;93922.97;5093090;28;20424;-77
2021/04/09 03:11:22;;;;;;;;;;;;;;;-0.26;87.77;93913.78;5092394;28;19933;-77
2021/04/09 03:13:48;;;;;;;;;;;;;;;-0.29;88.58;93924.28;5091437;28;20449;-77
2021/04/09 03:16:16;;;;;;;;;;;;;;;-0.36;90.02;93922.41;5093331;28;20342;-77
2021/04/09 03:18:43;;;;;;;;;;;;;;;-0.36;90.10;93927.53;5093121;28;19927;-75
2021/04/09 03:21:09;;;;;;;;;;;;;;;-0.52;88.70;93926.25;5092798;28;19927;-75
2021/04/09 03:23:34;;;;;;;;;;;;;;;-0.54;90.85;93919.63;5093452;28;19920;-77
2021/04/09 03:26:00;;;;;;;;;;;;;;;-0.52;91.16;93928.00;5092808;28;20403;-77
2021/04/09 03:28:26;;;;;;;;;;;;;;;-0.64;92.99;93925.53;5093374;28;19927;-77
2021/04/09 03:30:52;;;;;;;;;;;;;;;-0.72;95.34;93924.53;5093427;28;19975;-76
2021/04/09 03:33:20;;;;;;;;;;;;;;;-0.85;93.82;93927.31;5092699;28;19919;-76
2021/04/09 03:35:45;;;;;;;;;;;;;;;-0.76;93.52;93927.34;5093028;28;19928;-77
2021/04/09 03:38:12;;;;;;;;;;;;;;;-0.98;93.88;93928.34;5092817;28;19927;-77
2021/04/09 03:40:38;;;;;;;;;;;;;;;-1.12;95.63;93929.47;5092367;28;19920;-77
2021/04/09 03:43:03;;;;;;;;;;;;;;;-0.96;90.49;93930.78;5092022;28;19926;-77
2021/04/09 03:45:29;;;;;;;;;;;;;;;-1.01;90.93;93930.34;5091313;28;19923;-77
2021/04/09 03:47:55;;;;;;;;;;;;;;;-0.84;91.98;93923.81;5092626;28;19927;-77
2021/04/09 03:50:22;;;;;;;;;;;;;;;-0.86;92.71;93918.00;5092830;28;19920;-77
2021/04/09 03:52:48;;;;;;;;;;;;;;;-0.90;91.51;93930.25;5092428;28;20344;-77
2021/04/09 03:55:14;;;;;;;;;;;;;;;-0.86;90.14;93929.06;5093737;28;20022;-77
2021/04/09 03:57:40;;;;;;;;;;;;;;;-1.02;92.43;93923.59;5096122;28;19973;-76
2021/04/09 04:00:06;;;;;;;;;;;;;;;-0.73;89.30;93930.59;5096922;28;19920;-77
2021/04/09 04:02:33;;;;;;;;;;;;;;;-0.63;92.27;93924.59;5095924;28;20432;-76
2021/04/09 04:04:58;;;;;;;;;;;;;;;-0.61;91.76;93916.78;5095493;28;19965;-76
2021/04/09 04:07:25;;;;;;;;;;;;;;;-0.75;93.11;93912.78;5096679;28;19920;-77
2021/04/09 04:09:51;;;;;;;;;;;;;;;-0.77;92.47;93919.78;5096528;28;19920;-76
2021/04/09 04:12:17;;;;;;;;;;;;;;;-1.01;93.41;93915.78;5096212;28;19924;-77
2021/04/09 04:14:42;;;;;;;;;;;;;;;-0.87;93.23;93924.88;5096603;28;20423;-76
2021/04/09 04:17:08;;;;;;;;;;;;;;;-1.03;93.47;93916.81;5096144;28;19927;-76
2021/04/09 04:19:34;;;;;;;;;;;;;;;-0.97;90.78;93914.56;5095987;28;20014;-77
2021/04/09 04:22:00;;;;;;;;;;;;;;;-0.81;93.32;93909.00;5096363;28;19961;-77
2021/04/09 04:24:27;;;;;;;;;;;;;;;-0.69;91.40;93912.28;5096102;28;19924;-76
2021/04/09 04:26:53;;;;;;;;;;;;;;;-0.66;93.30;93914.59;5094754;28;19920;-75
2021/04/09 04:29:18;;;;;;;;;;;;;;;-0.82;93.77;93915.03;5094734;28;19920;-77
2021/04/09 04:31:44;;;;;;;;;;;;;;;-0.96;92.58;93916.19;5095124;28;19920;-77
2021/04/09 04:34:10;;;;;;;;;;;;;;;-0.58;92.77;93913.97;5095167;28;20002;-76
2021/04/09 04:36:36;;;;;;;;;;;;;;;-0.48;90.12;93914.78;5095506;28;19919;-77
2021/04/09 04:39:03;;;;;;;;;;;;;;;-0.38;89.20;93905.38;5095853;28;19920;-75
2021/04/09 04:41:30;;;;;;;;;;;;;;;-0.26;89.90;93897.59;5095389;28;19927;-77
2021/04/09 04:43:55;;;;;;;;;;;;;;;-0.24;91.64;93895.69;5095874;28;19927;-78
2021/04/09 04:46:21;;;;;;;;;;;;;;;-0.27;91.36;93901.06;5095809;28;19920;-76
2021/04/09 04:48:47;;;;;;;;;;;;;;;-0.28;92.00;93894.34;5095739;28;20390;-77
2021/04/09 04:51:13;;;;;;;;;;;;;;;-0.30;92.85;93894.47;5093856;28;19919;-77
2021/04/09 04:53:38;;;;;;;;;;;;;;;-0.26;92.10;93893.25;5095511;28;19943;-77
2021/04/09 04:56:05;;;;;;;;;;;;;;;-0.31;92.97;93890.28;5095093;28;20328;-76
2021/04/09 04:58:32;;;;;;;;;;;;;;;-0.32;93.10;93892.97;5095725;28;19926;-77
2021/04/09 05:00:57;;;;;;;;;;;;;;;-0.32;91.89;93891.19;5095286;28;19938;-77
2021/04/09 05:03:23;;;;;;;;;;;;;;;-0.31;90.66;93892.03;5094952;28;19924;-77
2021/04/09 05:05:49;;;;;;;;;;;;;;;-0.24;90.25;93895.69;5094291;28;20259;-77
2021/04/09 05:08:15;;;;;;;;;;;;;;;-0.22;91.68;93888.66;5094630;28;19920;-77
2021/04/09 05:10:40;;;;;;;;;;;;;;;-0.23;93.22;93892.19;5094640;28;20363;-77
2021/04/09 05:13:06;;;;;;;;;;;;;;;-0.07;87.90;93894.22;5095326;28;19920;-77
2021/04/09 05:15:33;;;;;;;;;;;;;;;0.06;89.17;93892.22;5095373;28;19920;-76
2021/04/09 05:17:59;;;;;;;;;;;;;;;0.06;90.90;93891.41;5095205;28;19927;-77
2021/04/09 05:20:25;;;;;;;;;;;;;;;0.07;92.41;93893.84;5094583;28;19920;-77
2021/04/09 05:22:50;;;;;;;;;;;;;;;0.13;92.39;93892.50;5093203;28;19927;-77
2021/04/09 05:25:16;;;;;;;;;;;;;;;0.24;92.12;93905.19;5092896;28;19942;-76
2021/04/09 05:27:42;;;;;;;;;;;;;;;0.28;92.06;93900.59;5094757;28;19969;-77
2021/04/09 05:30:08;;;;;;;;;;;;;;;0.50;90.24;93902.91;5089277;28;19920;-77
2021/04/09 05:32:35;;;;;;;;;;;;;;;0.69;88.50;93902.06;5093826;28;19924;-77
2021/04/09 05:35:01;;;;;;;;;;;;;;;0.90;88.51;93895.97;5092924;28;20455;-77
2021/04/09 05:37:27;;;;;;;;;;;;;;;1.02;88.65;93900.00;5094539;28;20111;-77
2021/04/09 05:39:52;;;;;;;;;;;;;;;1.17;88.56;93897.00;5094501;28;20355;-77
2021/04/09 05:42:18;;;;;;;;;;;;;;;1.32;87.73;93894.78;5094006;28;20336;-77
2021/04/09 05:44:44;;;;;;;;;;;;;;;1.57;85.67;93890.75;5094336;28;19920;-76
2021/04/09 05:47:10;;;;;;;;;;;;;;;1.81;84.73;93891.00;5094113;28;19920;-77
2021/04/09 05:49:37;;;;;;;;;;;;;;;2.02;85.03;93892.50;5094610;28;20267;-77
2021/04/09 05:52:04;;;;;;;;;;;;;;;2.38;83.98;93897.66;5093433;28;19920;-77
2021/04/09 05:54:29;;;;;;;;;;;;;;;2.62;83.97;93897.09;5093451;28;19919;-77
2021/04/09 05:56:55;;;;;;;;;;;;;;;2.84;83.46;93893.22;5094131;28;19920;-77
2021/04/09 05:59:21;;;;;;;;;;;;;;;3.05;82.42;93890.31;5092560;28;19920;-76
2021/04/09 06:01:47;;;;;;;;;;;;;;;3.32;81.09;93898.84;5093072;28;19943;-77
2021/04/09 06:04:13;;;;;;;;;;;;;;;3.24;83.20;93894.44;5094063;28;19973;-76
2021/04/09 06:06:39;;;;;;;;;;;;;;;3.39;78.68;93896.47;5094371;28;19920;-76
2021/04/09 06:09:05;;;;;;;;;;;;;;;3.69;80.26;93887.38;5093967;28;19927;-75
2021/04/09 06:11:31;;;;;;;;;;;;;;;3.89;78.31;93887.94;5093742;28;19920;-76
2021/04/09 06:13:57;;;;;;;;;;;;;;;4.22;78.19;93888.03;5093644;28;19924;-76
2021/04/09 06:16:23;;;;;;;;;;;;;;;4.49;77.94;93884.34;5093215;28;19920;-76
2021/04/09 06:18:49;;;;;;;;;;;;;;;4.72;77.03;93889.69;5093894;28;19927;-77
2021/04/09 06:21:15;;;;;;;;;;;;;;;4.81;75.22;93888.72;5094012;28;19920;-77
2021/04/09 06:23:41;;;;;;;;;;;;;;;4.88;75.55;93883.72;5093593;28;19970;-76
2021/04/09 06:26:07;;;;;;;;;;;;;;;4.96;72.86;93891.47;5092429;28;19967;-76
2021/04/09 06:28:33;;;;;;;;;;;;;;;5.26;66.61;93886.59;5093448;28;20003;-75
2021/04/09 06:30:59;;;;;;;;;;;;;;;5.48;67.27;93892.00;5093044;28;20363;-76
2021/04/09 06:33:25;;;;;;;;;;;;;;;5.78;66.41;93879.28;5093581;28;19926;-77
2021/04/09 06:35:51;;;;;;;;;;;;;;;5.93;67.52;93883.59;5093721;28;20033;-76
2021/04/09 06:38:16;;;;;;;;;;;;;;;6.30;65.72;93884.72;5093314;28;20431;-77
2021/04/09 06:40:44;;;;;;;;;;;;;;;6.59;59.32;93890.22;5093686;28;19954;-76
2021/04/09 06:43:11;;;;;;;;;;;;;;;6.77;59.58;93890.72;5092682;28;19920;-76
2021/04/09 06:45:37;;;;;;;;;;;;;;;7.12;59.70;93887.69;5093116;28;19920;-76
2021/04/09 06:48:03;;;;;;;;;;;;;;;7.10;56.27;93889.66;5093419;28;20366;-77
2021/04/09 06:50:30;;;;;;;;;;;;;;;7.32;57.79;93883.59;5093557;28;19924;-75
2021/04/09 06:52:56;;;;;;;;;;;;;;;7.41;57.35;93886.91;5093418;28;19930;-75
2021/04/09 06:55:23;;;;;;;;;;;;;;;7.61;57.62;93879.41;5092807;28;19920;-76
2021/04/09 06:57:50;;;;;;;;;;;;;;;7.85;55.36;93880.91;5093550;28;19943;-77
2021/04/09 07:00:17;;;;;;;;;;;;;;;7.92;54.41;93878.38;5093087;28;19957;-76
2021/04/09 07:02:43;;;;;;;;;;;;;;;8.34;55.85;93871.66;5092884;28;19965;-76
2021/04/09 07:05:10;;;;;;;;;;;;;;;8.54;47.54;93881.50;5093190;28;19929;-77
2021/04/09 07:07:35;;;;;;;;;;;;;;;8.88;48.97;93875.63;5093492;28;19920;-77
2021/04/09 07:10:01;;;;;;;;;;;;;;;8.87;45.95;93861.78;5093272;28;19935;-76
2021/04/09 07:12:28;;;;;;;;;;;;;;;9.00;46.30;93866.28;5092838;28;20414;-76
2021/04/09 07:14:55;;;;;;;;;;;;;;;9.32;37.63;93878.94;5093351;28;19920;-76
2021/04/09 07:17:22;;;;;;;;;;;;;;;9.55;40.11;93866.47;5093392;28;20317;-75
2021/04/09 07:19:48;;;;;;;;;;;;;;;10.00;42.18;93859.06;5093192;28;19924;-76
2021/04/09 07:22:14;;;;;;;;;;;;;;;10.29;41.12;93864.19;5093152;28;20248;-75
2021/04/09 07:24:40;;;;;;;;;;;;;;;10.31;36.42;93865.59;5093402;28;19920;-76
2021/04/09 07:27:06;;;;;;;;;;;;;;;10.63;36.90;93852.84;5093332;28;19920;-75
2021/04/09 07:29:45;;;;;;;;;;;;;;;11.08;35.59;93852.28;5093458;28;19942;-76
2021/04/09 07:32:29;;;;;;;;;;;;;;;11.20;36.03;93849.88;5096800;28;20013;-76
2021/04/09 07:34:55;;;;;;;;;;;;;;;11.19;36.98;93848.25;5097229;28;19920;-75
2021/04/09 07:37:22;;;;;;;;;;;;;;;11.32;33.57;93852.66;5097324;28;19920;-76
2021/04/09 07:39:52;;;;;;;;;;;;;;;11.14;33.90;93855.88;5097001;28;19924;-75
2021/04/09 07:42:18;;;;;;;;;;;;;;;11.20;32.97;93855.09;5097209;28;19980;-76
2021/04/09 07:44:44;;;;;;;;;;;;;;;11.50;35.09;93852.84;5096942;28;19924;-77
2021/04/09 07:47:10;;;;;;;;;;;;;;;11.85;32.47;93852.56;5097152;28;20014;-77
2021/04/09 07:49:39;;;;;;;;;;;;;;;11.70;31.62;93855.41;5097336;28;19920;-80
2021/04/09 07:52:09;;;;;;;;;;;;;;;11.27;30.46;93855.88;5096691;28;19920;-78
2021/04/09 07:54:35;;;;;;;;;;;;;;;11.48;34.09;93850.44;5096873;28;19962;-75
2021/04/09 07:57:01;;;;;;;;;;;;;;;11.75;32.81;93852.19;5096794;28;20287;-76
2021/04/09 07:59:45;;;;;;;;;;;;;;;12.04;32.88;93840.47;5096658;28;20386;-75
2021/04/09 08:02:12;;;;;;;;;;;;;;;12.33;31.90;93839.09;5096635;28;20389;-77
2021/04/09 08:04:39;;;;;;;;;;;;;;;11.85;31.18;93842.09;5096378;28;19924;-74
2021/04/09 08:07:05;;;;;;;;;;;;;;;11.68;32.52;93844.34;5096529;28;19927;-76
2021/04/09 08:09:46;;;;;;;;;;;;;;;11.82;31.07;93845.13;5096496;28;19942;-75
2021/04/09 08:12:24;;;;;;;;;;;;;;;11.78;33.65;93841.31;5093888;28;19927;-76
2021/04/09 08:14:50;;;;;;;;;;;;;;;11.66;32.88;93835.91;5096315;28;20378;-76
2021/04/09 08:17:17;;;;;;;;;;;;;;;11.35;33.19;93837.38;5096671;28;19927;-76
2021/04/09 08:19:46;;;;;;;;;;;;;;;11.55;31.67;93841.78;5096231;28;19974;-76
2021/04/09 08:22:12;;;;;;;;;;;;;;;11.54;32.37;93845.38;5096125;28;19920;-76
2021/04/09 08:24:38;;;;;;;;;;;;;;;11.60;32.54;93849.81;5092345;28;19997;-76
2021/04/09 08:27:05;;;;;;;;;;;;;;;11.35;32.75;93845.22;5096298;28;19920;-76
2021/04/09 08:29:31;;;;;;;;;;;;;;;11.59;33.69;93843.78;5095874;28;19920;-75
2021/04/09 08:31:57;;;;;;;;;;;;;;;11.33;34.37;93854.28;5095853;28;20019;-78
2021/04/09 08:34:23;;;;;;;;;;;;;;;11.81;34.66;93840.91;5096053;28;19920;-77
2021/04/09 08:36:51;;;;;;;;;;;;;;;11.61;32.46;93854.03;5095919;28;19919;-81
2021/04/09 08:39:17;;;;;;;;;;;;;;;11.48;32.68;93853.03;5096055;28;19920;-75
2021/04/09 08:41:44;;;;;;;;;;;;;;;11.41;33.45;93844.41;5094953;28;19920;-77
2021/04/09 08:44:11;;;;;;;;;;;;;;;11.60;31.68;93845.38;5095793;28;19927;-75
2021/04/09 08:46:37;;;;;;;;;;;;;;;11.65;31.99;93848.19;5095766;28;19964;-75
2021/04/09 08:49:03;;;;;;;;;;;;;;;12.00;32.88;93839.25;5095760;28;19924;-76
2021/04/09 08:51:29;;;;;;;;;;;;;;;11.67;31.87;93845.34;5095570;28;19985;-76
2021/04/09 08:54:16;;;;;;;;;;;;;;;11.64;35.69;93848.38;5095824;28;19931;-76
2021/04/09 08:56:41;;;;;;;;;;;;;;;11.67;32.63;93847.97;5095723;28;19947;-76
2021/04/09 08:59:07;;;;;;;;;;;;;;;11.50;34.77;93844.19;5095630;28;20359;-76
2021/04/09 09:01:33;;;;;;;;;;;;;;;11.16;32.89;93862.53;5095521;28;20393;-76
2021/04/09 09:04:20;;;;;;;;;;;;;;;11.37;34.12;93855.47;5095352;28;19920;-77
2021/04/09 09:06:46;;;;;;;;;;;;;;;11.30;31.91;93852.88;5095086;28;20383;-77
2021/04/09 09:09:26;;;;;;;;;;;;;;;11.35;32.12;93863.50;5095176;28;19920;-75
2021/04/09 09:11:53;;;;;;;;;;;;;;;11.60;32.37;93857.66;5094424;28;19920;-76
2021/04/09 09:14:37;;;;;;;;;;;;;;;11.73;32.39;93846.38;5095155;28;19924;-76
2021/04/09 09:17:21;;;;;;;;;;;;;;;11.60;32.38;93849.81;5084978;28;20381;-76
2021/04/09 09:19:48;;;;;;;;;;;;;;;11.94;29.55;93850.53;5094227;28;20375;-77
2021/04/09 09:22:14;;;;;;;;;;;;;;;11.88;29.89;93840.88;5094965;28;20267;-77
2021/04/09 09:25:00;;;;;;;;;;;;;;;12.24;30.65;93837.75;5094964;28;19943;-76
2021/04/09 09:27:40;;;;;;;;;;;;;;;12.40;30.80;93850.34;5095162;28;19920;-76
2021/04/09 09:30:26;;;;;;;;;;;;;;;12.37;30.17;93845.53;5094750;28;19920;-76
2021/04/09 09:33:17;;;;;;;;;;;;;;;12.42;30.19;93838.84;5094744;28;20003;-76
2021/04/09 09:35:59;;;;;;;;;;;;;;;12.14;29.30;93843.44;5094700;28;19920;-77
2021/04/09 09:38:45;;;;;;;;;;;;;;;12.56;33.45;93838.56;5094869;28;19920;-77
2021/04/09 09:41:12;;;;;;;;;;;;;;;12.59;30.28;93832.13;5094751;28;19920;-75
2021/04/09 09:43:41;;;;;;;;;;;;;;;12.99;29.83;93823.97;5094744;28;19927;-76
2021/04/09 09:46:08;;;;;;;;;;;;;;;13.05;29.27;93830.97;5095078;28;19927;-76
2021/04/09 09:48:33;;;;;;;;;;;;;;;13.09;31.97;93826.09;5094535;28;20293;-76
2021/04/09 09:51:19;;;;;;;;;;;;;;;13.22;29.81;93826.00;5094463;28;19926;-76
2021/04/09 09:53:54;;;;;;;;;;;;;;;13.34;30.63;93828.75;5093812;28;19927;-76
2021/04/09 09:56:27;;;;;;;;;;;;;;;13.33;31.17;93827.94;5094659;28;19943;-76
2021/04/09 09:58:53;;;;;;;;;;;;;;;13.75;28.89;93823.91;5094398;28;19927;-76
2021/04/09 10:01:23;;;;;;;;;;;;;;;13.49;29.36;93823.16;5094291;28;19939;-75
2021/04/09 10:03:49;;;;;;;;;;;;;;;13.18;31.92;93814.34;5094303;28;19931;-77
2021/04/09 10:06:15;;;;;;;;;;;;;;;12.71;29.15;93814.69;5094382;28;19920;-77
2021/04/09 10:08:42;;;;;;;;;;;;;;;12.91;29.71;93817.19;5094089;28;19924;-77
2021/04/09 10:11:14;;;;;;;;;;;;;;;13.06;28.65;93808.19;5094132;28;20440;-75
2021/04/09 10:13:42;;;;;;;;;;;;;;;13.23;30.22;93798.75;5093946;28;19950;-74
2021/04/09 10:16:09;;;;;;;;;;;;;;;13.04;28.32;93805.78;5094109;28;20011;-75
2021/04/09 10:18:35;;;;;;;;;;;;;;;12.69;31.13;93801.03;5093917;28;20355;-75
2021/04/09 10:21:08;;;;;;;;;;;;;;;13.06;29.57;93792.47;5093903;28;19927;-76
2021/04/09 10:23:34;;;;;;;;;;;;;;;13.10;28.82;93791.81;5093849;28;20450;-75
2021/04/09 10:26:00;;;;;;;;;;;;;;;13.38;28.84;93792.41;5094118;28;19920;-76
2021/04/09 10:28:26;;;;;;;;;;;;;;;13.49;31.64;93789.06;5093917;28;20260;-76
2021/04/09 10:30:53;;;;;;;;;;;;;;;13.47;31.49;93785.84;5093899;28;19928;-76
2021/04/09 10:33:19;;;;;;;;;;;;;;;13.69;29.76;93787.03;5093606;28;20366;-76
2021/04/09 10:35:45;;;;;;;;;;;;;;;13.79;29.91;93783.88;5093650;28;19990;-76
2021/04/09 10:38:11;;;;;;;;;;;;;;;13.89;28.83;93783.38;5093961;28;19924;-74
2021/04/09 10:40:53;;;;;;;;;;;;;;;14.12;30.07;93771.38;5093913;28;19965;-77
2021/04/09 10:43:29;;;;;;;;;;;;;;;13.93;28.90;93771.41;5093684;28;20018;-77
2021/04/09 10:46:09;;;;;;;;;;;;;;;13.93;29.45;93760.91;5093621;28;20398;-81
2021/04/09 10:48:35;;;;;;;;;;;;;;;14.40;30.67;93768.16;5093975;28;20321;-78
2021/04/09 10:51:00;;;;;;;;;;;;;;;14.66;28.53;93756.50;5093421;28;19965;-77
2021/04/09 10:53:26;;;;;;;;;;;;;;;15.11;28.65;93760.41;5093489;28;19920;-76
2021/04/09 10:55:52;;;;;;;;;;;;;;;14.76;30.03;93756.72;5093477;28;20355;-78
2021/04/09 10:58:18;;;;;;;;;;;;;;;14.63;30.22;93756.94;5093548;28;19920;-81
2021/04/09 11:00:47;;;;;;;;;;;;;;;14.60;30.32;93747.69;5093614;28;19920;-79
2021/04/09 11:03:14;;;;;;;;;;;;;;;14.72;31.33;93754.78;5093452;28;19920;-80
2021/04/09 11:05:40;;;;;;;;;;;;;;;14.54;29.55;93750.38;5092850;28;19920;-81
2021/04/09 11:08:09;;;;;;;;;;;;;;;14.41;28.32;93751.38;5093306;28;19989;-81
2021/04/09 11:10:36;;;;;;;;;;;;;;;14.46;30.82;93745.47;5093007;28;19920;-81
2021/04/09 11:13:01;;;;;;;;;;;;;;;14.75;29.76;93738.56;5093224;28;19920;-80
2021/04/09 11:15:37;;;;;;;;;;;;;;;14.80;29.76;93742.13;5093452;28;19966;-80
2021/04/09 11:18:04;;;;;;;;;;;;;;;14.26;30.58;93743.91;5093035;28;19927;-78
2021/04/09 11:20:33;;;;;;;;;;;;;;;14.20;29.95;93742.16;5093204;28;19963;-78
2021/04/09 11:22:59;;;;;;;;;;;;;;;14.19;29.68;93735.34;5093258;28;20425;-80
2021/04/09 11:25:29;;;;;;;;;;;;;;;14.51;29.41;93725.34;5093225;28;19920;-80
2021/04/09 11:27:55;;;;;;;;;;;;;;;14.86;29.91;93724.63;5093498;28;19920;-77
2021/04/09 11:30:22;;;;;;;;;;;;;;;15.36;29.80;93702.31;5093284;28;19920;-80
2021/04/09 11:32:49;;;;;;;;;;;;;;;15.61;29.94;93715.19;5092952;28;19926;-80
2021/04/09 11:35:15;;;;;;;;;;;;;;;15.21;27.98;93709.88;5093342;28;20011;-79
2021/04/09 11:37:43;;;;;;;;;;;;;;;15.49;28.50;93709.94;5093119;28;19928;-79
2021/04/09 11:40:09;;;;;;;;;;;;;;;15.50;29.18;93697.56;5093108;28;19924;-79
2021/04/09 11:42:36;;;;;;;;;;;;;;;15.76;28.27;93691.03;5092804;28;19927;-80
2021/04/09 11:45:03;;;;;;;;;;;;;;;15.67;29.17;93697.63;5093034;28;19973;-80
2021/04/09 11:47:32;;;;;;;;;;;;;;;15.64;26.73;93693.66;5092885;28;19923;-76
2021/04/09 11:50:03;;;;;;;;;;;;;;;15.89;28.13;93696.00;5093192;28;19920;-78
2021/04/09 11:52:29;;;;;;;;;;;;;;;15.59;25.85;93696.19;5092903;28;19924;-78
2021/04/09 11:54:55;;;;;;;;;;;;;;;15.74;26.91;93690.44;5092867;28;19927;-77
2021/04/09 11:57:22;;;;;;;;;;;;;;;15.63;28.45;93686.00;5092908;28;19926;-79
2021/04/09 11:59:48;;;;;;;;;;;;;;;15.74;26.82;93687.78;5093064;28;19947;-79
2021/04/09 12:02:15;;;;;;;;;;;;;;;15.80;27.60;93681.59;5092824;28;20378;-80
2021/04/09 12:04:41;;;;;;;;;;;;;;;16.19;27.42;93687.06;5092937;28;19920;-79
2021/04/09 12:07:10;;;;;;;;;;;;;;;16.73;27.62;93689.22;5092710;28;20344;-80
2021/04/09 12:09:36;;;;;;;;;;;;;;;16.74;25.83;93679.50;5093048;28;19920;-81
2021/04/09 12:12:03;;;;;;;;;;;;;;;17.18;25.80;93680.41;5092955;28;19920;-79
2021/04/09 12:14:36;;;;;;;;;;;;;;;17.20;24.66;93678.34;5092822;28;19931;-79
2021/04/09 12:17:05;;;;;;;;;;;;;;;17.38;27.08;93668.53;5095129;28;20393;-80
2021/04/09 12:19:33;;;;;;;;;;;;;;;17.24;24.42;93675.22;5096299;28;19920;-80
2021/04/09 12:22:05;;;;;;;;;;;;;;;17.04;27.36;93675.72;5096156;28;19975;-80
2021/04/09 12:24:37;;;;;;;;;;;;;;;16.64;25.02;93675.66;5096540;28;19927;-75
2021/04/09 12:27:04;;;;;;;;;;;;;;;16.43;26.58;93676.38;5096320;28;19969;-77
2021/04/09 12:29:31;;;;;;;;;;;;;;;16.52;27.82;93688.13;5096039;28;19920;-76
2021/04/09 12:31:57;;;;;;;;;;;;;;;16.16;26.38;93676.19;5095959;28;19920;-77
2021/04/09 12:34:23;;;;;;;;;;;;;;;16.32;27.57;93674.59;5095667;28;19927;-76
2021/04/09 12:36:49;;;;;;;;;;;;;;;16.43;26.34;93681.66;5096140;28;19924;-78
2021/04/09 12:39:20;;;;;;;;;;;;;;;16.60;27.49;93671.91;5096068;28;19926;-76
2021/04/09 12:41:46;;;;;;;;;;;;;;;16.88;24.87;93675.50;5095656;28;20359;-79
2021/04/09 12:44:20;;;;;;;;;;;;;;;16.92;23.86;93670.53;5096037;28;19919;-77
2021/04/09 12:46:47;;;;;;;;;;;;;;;16.70;25.06;93667.81;5095764;28;19920;-75
2021/04/09 12:49:16;;;;;;;;;;;;;;;16.53;28.70;93670.47;5096051;28;19927;-76
2021/04/09 12:51:46;;;;;;;;;;;;;;;16.68;25.65;93675.19;5095824;28;19920;-78